createdAt,value
2023-03-06T00:01:08.568Z,4.50
2023-03-06T00:04:10.333Z,4.38
2023-03-06T00:07:11.972Z,4.20
2023-03-06T00:10:16.380Z,4.13
2023-03-06T00:13:19.229Z,4.70
2023-03-06T00:16:20.855Z,4.35
2023-03-06T00:19:23.402Z,4.07
2023-03-06T00:22:24.981Z,4.78
2023-03-06T00:25:26.621Z,4.43
2023-03-06T00:28:30.992Z,4.32
2023-03-06T00:31:33.102Z,4.60
2023-03-06T00:34:34.835Z,4.85
2023-03-06T00:37:36.711Z,4.38
2023-03-06T00:40:38.337Z,4.20
2023-03-06T00:43:40.246Z,3.92
2023-03-06T00:46:41.809Z,3.88
2023-03-06T00:49:44.857Z,3.53
2023-03-06T00:52:46.489Z,4.32
2023-03-06T00:55:49.600Z,3.73
2023-03-06T00:58:51.218Z,3.47
2023-03-06T01:01:53.055Z,3.47
2023-03-06T01:04:54.865Z,3.35
2023-03-06T01:07:56.460Z,3.53
2023-03-06T01:10:58.089Z,3.47
2023-03-06T01:13:59.856Z,3.45
2023-03-06T01:17:01.478Z,3.80
2023-03-06T01:20:03.871Z,3.42
2023-03-06T01:23:05.522Z,3.20
2023-03-06T01:26:07.408Z,3.03
2023-03-06T01:29:09.024Z,3.42
2023-03-06T01:32:10.703Z,3.50
2023-03-06T01:35:13.147Z,3.38
2023-03-06T01:38:15.006Z,3.67
2023-03-06T01:41:17.591Z,3.53
2023-03-06T01:44:19.472Z,3.45
2023-03-06T01:47:21.087Z,3.80
2023-03-06T01:50:22.823Z,3.75
2023-03-06T01:53:24.649Z,4.32
2023-03-06T01:56:26.603Z,3.70
2023-03-06T01:59:30.310Z,3.78
2023-03-06T02:02:31.911Z,3.63
2023-03-06T02:05:33.713Z,4.00
2023-03-06T02:08:35.520Z,3.53
2023-03-06T02:11:37.157Z,3.23
2023-03-06T02:14:40.110Z,3.53
2023-03-06T02:17:44.731Z,3.40
2023-03-06T02:20:50.434Z,3.33
2023-03-06T02:24:06.886Z,3.63
2023-03-06T02:27:10.683Z,3.77
2023-03-06T02:30:16.573Z,3.72
2023-03-06T02:33:21.768Z,3.78
2023-03-06T02:36:23.645Z,3.55
2023-03-06T02:39:28.293Z,3.35
2023-03-06T02:42:30.289Z,3.33
2023-03-06T02:45:34.295Z,3.60
2023-03-06T02:48:36.210Z,3.90
2023-03-06T02:51:37.928Z,3.38
2023-03-06T02:54:39.871Z,3.38
2023-03-06T02:57:41.512Z,3.30
2023-03-06T03:00:43.125Z,3.70
2023-03-06T03:03:44.853Z,3.70
2023-03-06T03:06:46.483Z,3.75
2023-03-06T03:09:48.096Z,3.63
2023-03-06T03:12:50.217Z,3.30
2023-03-06T03:16:14.155Z,3.47
2023-03-06T03:19:15.908Z,3.28
2023-03-06T03:22:17.911Z,3.28
2023-03-06T03:25:20.051Z,3.70
2023-03-06T03:28:21.617Z,3.40
2023-03-06T03:31:23.437Z,3.20
2023-03-06T03:34:25.345Z,3.38
2023-03-06T03:37:27.094Z,3.38
2023-03-06T03:40:29.160Z,3.88
2023-03-06T03:43:31.207Z,3.87
2023-03-06T03:46:33.031Z,3.72
2023-03-06T03:49:34.672Z,3.95
2023-03-06T03:52:36.968Z,3.70
2023-03-06T03:55:38.585Z,3.80
2023-03-06T03:58:40.357Z,3.63
2023-03-06T04:01:42.097Z,3.58
2023-03-06T04:04:43.828Z,3.67
2023-03-06T04:07:45.588Z,3.38
2023-03-06T04:10:47.225Z,3.67
2023-03-06T04:13:48.854Z,3.80
2023-03-06T04:16:50.559Z,3.25
2023-03-06T04:19:52.226Z,3.60
2023-03-06T04:22:53.800Z,3.28
2023-03-06T04:25:55.567Z,3.80
2023-03-06T04:28:58.506Z,3.47
2023-03-06T04:32:00.240Z,3.65
2023-03-06T04:35:02.235Z,3.70
2023-03-06T04:38:04.883Z,3.40
2023-03-06T04:41:06.518Z,3.50
2023-03-06T04:44:08.710Z,3.63
2023-03-06T04:47:10.804Z,3.50
2023-03-06T04:50:12.987Z,3.65
2023-03-06T04:53:15.977Z,4.05
2023-03-06T04:56:17.636Z,3.92
2023-03-06T04:59:19.322Z,3.23
2023-03-06T05:02:20.973Z,3.67
2023-03-06T05:05:22.696Z,3.78
2023-03-06T05:08:24.343Z,3.67
2023-03-06T05:11:26.007Z,4.05
2023-03-06T05:14:31.416Z,3.50
2023-03-06T05:17:33.119Z,3.95
2023-03-06T05:20:34.849Z,3.92
2023-03-06T05:23:38.498Z,3.90
2023-03-06T05:26:40.214Z,3.95
2023-03-06T05:29:41.958Z,4.10
2023-03-06T05:32:43.873Z,4.05
2023-03-06T05:35:47.641Z,4.30
2023-03-06T05:38:49.264Z,4.10
2023-03-06T05:41:50.907Z,4.22
2023-03-06T05:44:52.615Z,4.07
2023-03-06T05:47:54.180Z,4.05
2023-03-06T05:50:57.570Z,4.72
2023-03-06T05:53:59.201Z,5.10
2023-03-06T05:57:01.459Z,4.93
2023-03-06T06:00:04.077Z,5.37
2023-03-06T06:03:05.776Z,4.57
2023-03-06T06:06:09.856Z,4.45
2023-03-06T06:09:13.841Z,5.30
2023-03-06T06:12:15.712Z,6.78
2023-03-06T06:15:17.389Z,5.60
2023-03-06T06:18:19.089Z,5.35
2023-03-06T06:21:20.783Z,5.20
2023-03-06T06:24:25.267Z,4.90
2023-03-06T06:27:26.898Z,5.53
2023-03-06T06:30:28.545Z,6.10
2023-03-06T06:33:30.155Z,5.68
2023-03-06T06:36:32.801Z,5.90
2023-03-06T06:39:34.397Z,5.18
2023-03-06T06:42:39.947Z,5.43
2023-03-06T06:45:44.214Z,5.60
2023-03-06T06:48:49.296Z,5.90
2023-03-06T06:51:50.888Z,5.20
2023-03-06T06:54:53.140Z,6.07
2023-03-06T06:57:54.780Z,6.65
2023-03-06T07:00:56.454Z,9.73
2023-03-06T07:03:58.289Z,8.35
2023-03-06T07:07:01.166Z,7.10
2023-03-06T07:10:07.158Z,7.47
2023-03-06T07:13:08.800Z,7.55
2023-03-06T07:16:10.568Z,7.17
2023-03-06T07:19:12.262Z,7.75
2023-03-06T07:22:13.868Z,7.72
2023-03-06T07:25:15.652Z,7.70
2023-03-06T07:28:18.682Z,7.53
2023-03-06T07:31:23.656Z,6.60
2023-03-06T07:34:25.352Z,6.50
2023-03-06T07:37:28.430Z,6.55
2023-03-06T07:40:30.179Z,5.75
2023-03-06T07:43:32.131Z,5.80
2023-03-06T07:46:34.208Z,5.60
2023-03-06T07:49:35.897Z,5.43
2023-03-06T07:52:37.539Z,5.50
2023-03-06T07:55:41.423Z,5.40
2023-03-06T07:58:46.103Z,5.15
2023-03-06T08:01:47.784Z,6.00
2023-03-06T08:04:55.995Z,5.05
2023-03-06T08:07:57.798Z,4.95
2023-03-06T08:10:59.420Z,5.00
2023-03-06T08:14:01.106Z,5.40
2023-03-06T08:17:03.030Z,5.07
2023-03-06T08:20:05.921Z,4.88
2023-03-06T08:23:07.723Z,5.20
2023-03-06T08:26:13.643Z,5.13
2023-03-06T08:29:15.569Z,5.60
2023-03-06T08:32:17.267Z,5.50
2023-03-06T08:35:19.165Z,5.50
2023-03-06T08:38:20.865Z,5.43
2023-03-06T08:41:22.768Z,5.35
2023-03-06T08:44:24.670Z,5.57
2023-03-06T08:47:26.326Z,5.13
2023-03-06T08:50:28.072Z,5.00
2023-03-06T08:53:42.232Z,5.63
2023-03-06T08:56:45.107Z,5.40
2023-03-06T08:59:46.718Z,5.60
2023-03-06T09:02:48.500Z,5.20
2023-03-06T09:05:51.415Z,5.30
2023-03-06T09:08:54.306Z,6.65
2023-03-06T09:11:56.453Z,5.28
2023-03-06T09:15:04.424Z,5.40
2023-03-06T09:18:06.340Z,5.30
2023-03-06T09:21:09.666Z,5.57
2023-03-06T09:24:11.790Z,5.30
2023-03-06T09:27:13.481Z,4.93
2023-03-06T09:30:15.914Z,5.20
2023-03-06T09:33:18.707Z,4.60
2023-03-06T09:36:22.752Z,4.72
2023-03-06T09:39:25.978Z,4.75
2023-03-06T09:42:28.992Z,4.78
2023-03-06T09:45:33.193Z,5.68
2023-03-06T09:49:00.255Z,5.20
2023-03-06T09:52:13.896Z,5.55
2023-03-06T09:55:19.625Z,5.90
2023-03-06T09:58:23.887Z,6.38
2023-03-06T10:01:33.102Z,6.25
2023-03-06T10:04:40.450Z,7.10
2023-03-06T10:07:46.874Z,8.32
2023-03-06T10:10:58.061Z,7.10
2023-03-06T10:14:15.858Z,7.28
2023-03-06T10:17:20.664Z,6.70
2023-03-06T10:20:25.572Z,6.50
2023-03-06T10:23:42.811Z,6.20
2023-03-06T10:27:13.826Z,7.40
2023-03-06T10:30:34.009Z,5.95
2023-03-06T10:33:51.024Z,6.57
2023-03-06T10:36:52.733Z,7.07
2023-03-06T10:40:02.829Z,6.63
2023-03-06T10:43:12.181Z,7.80
2023-03-06T10:46:30.161Z,7.07
2023-03-06T10:49:37.675Z,6.97
2023-03-06T10:52:39.300Z,7.17
2023-03-06T10:55:41.170Z,6.85
2023-03-06T10:58:42.907Z,7.35
2023-03-06T11:01:55.856Z,7.22
2023-03-06T11:04:59.918Z,7.00
2023-03-06T11:08:01.726Z,6.53
2023-03-06T11:11:36.348Z,7.32
2023-03-06T11:14:39.053Z,6.75
2023-03-06T11:17:59.170Z,7.30
2023-03-06T11:21:03.878Z,7.63
2023-03-06T11:24:20.353Z,6.90
2023-03-06T11:27:36.668Z,7.80
2023-03-06T11:30:52.221Z,7.45
2023-03-06T11:34:18.671Z,7.43
2023-03-06T11:37:32.647Z,7.32
2023-03-06T11:40:42.791Z,10.20
2023-03-06T11:43:47.024Z,7.85
2023-03-06T11:46:53.050Z,8.07
2023-03-06T11:50:14.302Z,7.60
2023-03-06T11:53:23.455Z,7.57
2023-03-06T11:56:36.847Z,7.47
2023-03-06T12:00:02.681Z,8.45
2023-03-06T12:03:17.095Z,8.80
2023-03-06T12:06:36.874Z,7.70
2023-03-06T12:09:47.013Z,8.05
2023-03-06T12:13:08.606Z,7.77
2023-03-06T12:16:48.533Z,8.05
2023-03-06T12:20:14.019Z,8.95
2023-03-06T12:23:18.785Z,8.10
2023-03-06T12:26:38.718Z,8.43
2023-03-06T12:29:54.278Z,10.67
2023-03-06T12:33:31.401Z,9.32
2023-03-06T12:36:54.327Z,8.48
2023-03-06T12:40:14.886Z,8.30
2023-03-06T12:43:40.037Z,8.00
2023-03-06T12:46:49.018Z,7.87
2023-03-06T12:49:56.714Z,8.38
2023-03-06T12:53:07.546Z,8.65
2023-03-06T12:56:13.314Z,7.78
2023-03-06T12:59:54.817Z,7.85
2023-03-06T13:03:14.989Z,8.07
2023-03-06T13:06:45.047Z,8.32
2023-03-06T13:10:25.664Z,8.63
2023-03-06T13:13:48.272Z,8.23
2023-03-06T13:16:50.156Z,8.32
2023-03-06T13:20:13.841Z,7.73
2023-03-06T13:23:30.803Z,7.90
2023-03-06T13:26:32.493Z,8.00
2023-03-06T13:29:37.290Z,8.52
2023-03-06T13:32:39.109Z,8.52
2023-03-06T13:35:40.734Z,7.93
2023-03-06T13:38:42.358Z,9.38
2023-03-06T13:41:58.758Z,8.65
2023-03-06T13:45:17.242Z,9.02
2023-03-06T13:48:43.689Z,8.63
2023-03-06T13:52:11.099Z,9.07
2023-03-06T13:55:31.209Z,8.63
2023-03-06T13:59:03.607Z,8.18
2023-03-06T14:02:33.375Z,8.70
2023-03-06T14:05:49.925Z,8.55
2023-03-06T14:08:51.741Z,9.47
2023-03-06T14:12:02.298Z,8.77
2023-03-06T14:15:13.825Z,8.95
2023-03-06T14:18:32.900Z,9.27
2023-03-06T14:21:45.582Z,9.20
2023-03-06T14:25:16.063Z,9.03
2023-03-06T14:28:27.252Z,9.20
2023-03-06T14:31:36.719Z,8.70
2023-03-06T14:34:42.065Z,8.65
2023-03-06T14:37:48.445Z,8.65
2023-03-06T14:40:52.413Z,8.23
2023-03-06T14:44:10.313Z,9.02
2023-03-06T14:47:22.663Z,9.10
2023-03-06T14:50:26.333Z,8.75
2023-03-06T14:53:31.779Z,8.98
2023-03-06T14:56:39.798Z,8.63
2023-03-06T14:59:47.923Z,8.65
2023-03-06T15:02:51.697Z,8.45
2023-03-06T15:05:54.540Z,9.10
2023-03-06T15:09:08.305Z,8.65
2023-03-06T15:12:22.733Z,8.77
2023-03-06T15:15:31.198Z,8.95
2023-03-06T15:18:51.375Z,8.63
2023-03-06T15:21:53.058Z,8.52
2023-03-06T15:25:17.222Z,8.73
2023-03-06T15:28:40.057Z,8.33
2023-03-06T15:31:43.760Z,8.55
2023-03-06T15:34:45.431Z,9.23
2023-03-06T15:37:47.076Z,8.77
2023-03-06T15:40:57.183Z,8.70
2023-03-06T15:44:00.388Z,8.83
2023-03-06T15:47:08.649Z,9.05
2023-03-06T15:50:28.801Z,8.88
2023-03-06T15:53:31.195Z,8.68
2023-03-06T15:56:35.249Z,8.65
2023-03-06T15:59:42.940Z,8.70
2023-03-06T16:02:44.628Z,9.00
2023-03-06T16:05:46.332Z,8.73
2023-03-06T16:08:48.084Z,8.88
2023-03-06T16:11:49.810Z,9.57
2023-03-06T16:14:52.533Z,9.63
2023-03-06T16:17:54.523Z,9.32
2023-03-06T16:20:56.085Z,9.30
2023-03-06T16:23:57.702Z,9.20
2023-03-06T16:27:01.282Z,9.48
2023-03-06T16:30:04.319Z,8.77
2023-03-06T16:33:06.151Z,9.43
2023-03-06T16:36:12.281Z,9.95
2023-03-06T16:39:16.017Z,11.20
2023-03-06T16:42:17.771Z,9.88
2023-03-06T16:45:21.109Z,9.80
2023-03-06T16:48:22.895Z,9.70
2023-03-06T16:51:24.650Z,9.10
2023-03-06T16:54:26.356Z,9.60
2023-03-06T16:57:32.252Z,9.38
2023-03-06T17:00:34.308Z,9.20
2023-03-06T17:03:36.769Z,9.23
2023-03-06T17:06:38.581Z,10.07
2023-03-06T17:09:40.186Z,10.05
2023-03-06T17:12:42.315Z,11.02
2023-03-06T17:15:56.282Z,10.77
2023-03-06T17:18:58.277Z,9.32
2023-03-06T17:21:59.877Z,9.57
2023-03-06T17:25:02.853Z,9.90
2023-03-06T17:28:04.535Z,9.38
2023-03-06T17:31:17.689Z,9.37
2023-03-06T17:34:19.359Z,9.60
2023-03-06T17:37:21.104Z,9.55
2023-03-06T17:40:22.723Z,9.35
2023-03-06T17:43:24.553Z,9.40
2023-03-06T17:46:26.343Z,9.33
2023-03-06T17:49:28.489Z,9.45
2023-03-06T17:52:30.430Z,9.35
2023-03-06T17:55:32.074Z,8.95
2023-03-06T17:58:34.393Z,9.18
2023-03-06T18:01:36.228Z,9.10
2023-03-06T18:04:37.948Z,9.35
2023-03-06T18:07:39.662Z,8.85
2023-03-06T18:10:41.958Z,9.23
2023-03-06T18:13:46.387Z,9.20
2023-03-06T18:16:48.091Z,8.83
2023-03-06T18:19:51.041Z,9.27
2023-03-06T18:22:52.685Z,15.20
2023-03-06T18:26:12.112Z,10.73
2023-03-06T18:29:13.714Z,8.40
2023-03-06T18:32:15.441Z,9.63
2023-03-06T18:35:17.404Z,10.68
2023-03-06T18:38:19.090Z,11.10
2023-03-06T18:41:22.814Z,9.68
2023-03-06T18:44:24.410Z,10.80
2023-03-06T18:47:26.161Z,10.17
2023-03-06T18:50:27.812Z,10.18
2023-03-06T18:53:29.392Z,10.25
2023-03-06T18:56:31.371Z,11.68
2023-03-06T18:59:33.309Z,12.10
2023-03-06T19:02:35.015Z,11.83
2023-03-06T19:05:44.971Z,11.88
2023-03-06T19:08:46.651Z,12.15
2023-03-06T19:11:48.786Z,12.07
2023-03-06T19:14:50.583Z,13.00
2023-03-06T19:17:52.203Z,12.37
2023-03-06T19:20:54.436Z,12.70
2023-03-06T19:23:57.274Z,12.65
2023-03-06T19:26:58.975Z,13.23
2023-03-06T19:30:00.684Z,13.45
2023-03-06T19:33:02.278Z,15.60
2023-03-06T19:36:05.965Z,13.95
2023-03-06T19:39:09.586Z,14.20
2023-03-06T19:42:13.669Z,13.88
2023-03-06T19:45:15.641Z,14.05
2023-03-06T19:48:17.775Z,13.17
2023-03-06T19:51:19.467Z,14.32
2023-03-06T19:54:23.487Z,14.68
2023-03-06T19:57:25.181Z,15.38
2023-03-06T20:00:26.861Z,15.25
2023-03-06T20:03:28.550Z,15.13
2023-03-06T20:06:37.648Z,15.68
2023-03-06T20:09:39.351Z,15.27
2023-03-06T20:12:41.143Z,14.20
2023-03-06T20:15:42.759Z,14.88
2023-03-06T20:18:45.440Z,14.30
2023-03-06T20:21:47.210Z,14.25
2023-03-06T20:24:48.820Z,15.68
2023-03-06T20:27:50.491Z,15.93
2023-03-06T20:30:52.131Z,14.75
2023-03-06T20:33:55.153Z,15.70
2023-03-06T20:36:57.890Z,15.30
2023-03-06T20:40:03.505Z,15.88
2023-03-06T20:43:05.294Z,15.18
2023-03-06T20:46:07.041Z,16.45
2023-03-06T20:49:09.112Z,16.37
2023-03-06T20:52:10.723Z,19.38
2023-03-06T20:55:12.811Z,19.38
2023-03-06T20:58:14.388Z,19.83
2023-03-06T21:01:24.695Z,17.48
2023-03-06T21:04:26.399Z,16.87
2023-03-06T21:07:28.264Z,16.58
2023-03-06T21:10:31.117Z,16.52
2023-03-06T21:13:32.710Z,16.23
2023-03-06T21:16:34.422Z,15.52
2023-03-06T21:19:36.801Z,14.53
2023-03-06T21:22:38.414Z,15.10
2023-03-06T21:25:51.168Z,14.73
2023-03-06T21:28:53.309Z,13.65
2023-03-06T21:31:56.391Z,14.20
2023-03-06T21:34:58.086Z,13.47
2023-03-06T21:37:59.683Z,12.88
2023-03-06T21:41:16.137Z,13.60
2023-03-06T21:44:17.747Z,14.00
2023-03-06T21:47:20.116Z,14.88
2023-03-06T21:50:22.197Z,15.50
2023-03-06T21:53:23.833Z,14.77
2023-03-06T21:56:26.094Z,15.23
2023-03-06T21:59:27.772Z,14.57
2023-03-06T22:02:29.562Z,13.45
2023-03-06T22:05:34.504Z,14.83
2023-03-06T22:08:36.166Z,14.25
2023-03-06T22:11:38.006Z,13.77
2023-03-06T22:14:39.759Z,13.75
2023-03-06T22:17:41.678Z,13.40
2023-03-06T22:20:43.310Z,14.47
2023-03-06T22:23:48.982Z,13.52
2023-03-06T22:26:50.671Z,15.93
2023-03-06T22:29:53.241Z,14.70
2023-03-06T22:32:54.872Z,15.05
2023-03-06T22:36:05.447Z,13.87
2023-03-06T22:39:07.052Z,14.02
2023-03-06T22:42:08.741Z,14.27
2023-03-06T22:45:11.047Z,14.40
2023-03-06T22:48:12.701Z,14.18
2023-03-06T22:51:19.814Z,13.67
2023-03-06T22:54:21.494Z,13.77
2023-03-06T22:57:23.166Z,14.52
2023-03-06T23:00:25.569Z,14.25
2023-03-06T23:03:27.227Z,14.32
2023-03-06T23:06:37.642Z,14.07
2023-03-06T23:09:39.298Z,12.77
2023-03-06T23:12:41.707Z,14.48
2023-03-06T23:15:43.348Z,14.23
2023-03-06T23:18:45.092Z,14.23
2023-03-06T23:21:46.991Z,14.67
2023-03-06T23:24:48.655Z,15.18
2023-03-06T23:27:50.387Z,14.45
2023-03-06T23:30:52.500Z,13.73
2023-03-06T23:33:56.612Z,13.70
2023-03-06T23:36:58.301Z,13.17
2023-03-06T23:39:59.933Z,13.68
2023-03-06T23:43:01.637Z,13.30
2023-03-06T23:46:03.710Z,13.63
2023-03-06T23:49:06.327Z,14.02
2023-03-06T23:52:08.333Z,13.30
2023-03-06T23:55:10.369Z,13.20
2023-03-06T23:58:13.505Z,13.70
